UAE815 OMDB-OERK
Flight info
| Callsign | UAE815 |
|---|---|
| Flight time | 1h 41m |
| Altitude | 30000 |
| Route | ANVIX R401 GIDIS G783 DESVU/N0509F320 G783 RIGIL M628 PEKEM/N0511F280 M628 AMBAG M321 NAGUB |
| Aircraft | B77W/H-SDE1E2E3FGHIJ2J3J4J5M1RWXY/LB1D1 |
Departure
| Time | 2026-05-04 18:54 |
|---|---|
| Airport | Dubai International Airport (OMDB) |
Arrival
| Time | 2026-05-04 20:36 |
|---|---|
| Airport | King Khalid International Airport (OERK) |
| Time | Latitude | Longitude | Altitude | Speed | Heading |
|---|---|---|---|---|---|
| 2026-05-04 18:21 | 25.24621 | 55.36366 | 47 ft | 0 kts | 31° |
| 2026-05-04 18:44 | 25.24611 | 55.36360 | 47 ft | 3 kts | 30° |
| 2026-05-04 18:44 | 25.24599 | 55.36352 | 47 ft | 3 kts | 29° |
| 2026-05-04 18:44 | 25.24576 | 55.36338 | 47 ft | 3 kts | 34° |
| 2026-05-04 18:44 | 25.24562 | 55.36325 | 47 ft | 3 kts | 56° |
| 2026-05-04 18:45 | 25.24555 | 55.36317 | 47 ft | 3 kts | 99° |
| 2026-05-04 18:45 | 25.24557 | 55.36309 | 47 ft | 2 kts | 117° |
| 2026-05-04 18:45 | 25.24567 | 55.36290 | 47 ft | 3 kts | 120° |
| 2026-05-04 18:45 | 25.24577 | 55.36271 | 47 ft | 2 kts | 121° |
| 2026-05-04 18:46 | 25.24578 | 55.36269 | 48 ft | 0 kts | 121° |
| 2026-05-04 18:47 | 25.24578 | 55.36270 | 48 ft | 0 kts | 121° |
| 2026-05-04 18:48 | 25.24563 | 55.36296 | 48 ft | 11 kts | 121° |
| 2026-05-04 18:48 | 25.24503 | 55.36404 | 48 ft | 18 kts | 122° |
| 2026-05-04 18:48 | 25.24453 | 55.36524 | 48 ft | 17 kts | 101° |
| 2026-05-04 18:48 | 25.24480 | 55.36639 | 48 ft | 16 kts | 45° |
| 2026-05-04 18:49 | 25.24566 | 55.36710 | 48 ft | 15 kts | 34° |
| 2026-05-04 18:49 | 25.24651 | 55.36771 | 48 ft | 14 kts | 30° |
| 2026-05-04 18:49 | 25.24731 | 55.36826 | 48 ft | 13 kts | 46° |
| 2026-05-04 18:49 | 25.24728 | 55.36917 | 48 ft | 13 kts | 124° |
| 2026-05-04 18:50 | 25.24677 | 55.36997 | 48 ft | 13 kts | 125° |
| 2026-05-04 18:50 | 25.24628 | 55.37075 | 48 ft | 12 kts | 121° |
| 2026-05-04 18:50 | 25.24586 | 55.37153 | 48 ft | 12 kts | 121° |
| 2026-05-04 18:50 | 25.24545 | 55.37227 | 48 ft | 11 kts | 121° |
| 2026-05-04 18:51 | 25.24504 | 55.37298 | 48 ft | 11 kts | 122° |
| 2026-05-04 18:51 | 25.24466 | 55.37365 | 48 ft | 10 kts | 122° |
| 2026-05-04 18:51 | 25.24429 | 55.37430 | 48 ft | 10 kts | 122° |
| 2026-05-04 18:51 | 25.24395 | 55.37493 | 48 ft | 9 kts | 120° |
| 2026-05-04 18:52 | 25.24361 | 55.37555 | 48 ft | 10 kts | 120° |
| 2026-05-04 18:52 | 25.24320 | 55.37639 | 48 ft | 15 kts | 107° |
| 2026-05-04 18:52 | 25.24367 | 55.37732 | 48 ft | 20 kts | 28° |
| 2026-05-04 18:52 | 25.24510 | 55.37834 | 48 ft | 21 kts | 35° |
| 2026-05-04 18:53 | 25.24630 | 55.37923 | 48 ft | 20 kts | 33° |
| 2026-05-04 18:53 | 25.24746 | 55.38006 | 48 ft | 19 kts | 23° |
| 2026-05-04 18:53 | 25.24841 | 55.37965 | 48 ft | 16 kts | 306° |
| 2026-05-04 18:53 | 25.24938 | 55.37790 | 48 ft | 52 kts | 301° |
| 2026-05-04 18:54 | 25.25264 | 55.37206 | 48 ft | 126 kts | 301° |
| 2026-05-04 18:54 | 25.25830 | 55.36172 | 58 ft | 184 kts | 300° |
| 2026-05-04 18:54 | 25.26504 | 55.34930 | 561 ft | 190 kts | 300° |
| 2026-05-04 18:54 | 25.27181 | 55.33683 | 1350 ft | 186 kts | 300° |
| 2026-05-04 18:55 | 25.27862 | 55.32471 | 1959 ft | 190 kts | 300° |
| 2026-05-04 18:55 | 25.29280 | 55.29769 | 2738 ft | 218 kts | 289° |
| 2026-05-04 18:55 | 25.29304 | 55.28061 | 3240 ft | 231 kts | 259° |
| 2026-05-04 18:56 | 25.28593 | 55.26439 | 3846 ft | 240 kts | 242° |
| 2026-05-04 18:56 | 25.27722 | 55.24821 | 4371 ft | 248 kts | 245° |
| 2026-05-04 18:56 | 25.26905 | 55.23117 | 4980 ft | 254 kts | 245° |
| 2026-05-04 18:56 | 25.26107 | 55.21376 | 5667 ft | 254 kts | 246° |
| 2026-05-04 18:57 | 25.25332 | 55.19596 | 6275 ft | 260 kts | 245° |
| 2026-05-04 18:57 | 25.24200 | 55.18001 | 6789 ft | 272 kts | 221° |
| 2026-05-04 18:57 | 25.22479 | 55.17113 | 7388 ft | 278 kts | 194° |
| 2026-05-04 18:57 | 25.20551 | 55.17146 | 8020 ft | 280 kts | 168° |
| 2026-05-04 18:58 | 25.18805 | 55.18092 | 8595 ft | 283 kts | 141° |
| 2026-05-04 18:58 | 25.17505 | 55.19683 | 9332 ft | 278 kts | 128° |
| 2026-05-04 18:58 | 25.16376 | 55.21425 | 9930 ft | 282 kts | 121° |
| 2026-05-04 18:58 | 25.15385 | 55.23346 | 10325 ft | 295 kts | 117° |
| 2026-05-04 18:59 | 25.14416 | 55.25417 | 10643 ft | 313 kts | 115° |
| 2026-05-04 18:59 | 25.13457 | 55.27644 | 10966 ft | 330 kts | 114° |
| 2026-05-04 18:59 | 25.12403 | 55.29981 | 11298 ft | 350 kts | 116° |
| 2026-05-04 18:59 | 25.11222 | 55.32403 | 11731 ft | 365 kts | 118° |
| 2026-05-04 19:00 | 25.09942 | 55.34898 | 12155 ft | 381 kts | 119° |
| 2026-05-04 19:00 | 25.08583 | 55.37474 | 12631 ft | 395 kts | 120° |
| 2026-05-04 19:00 | 25.07161 | 55.40119 | 13177 ft | 406 kts | 120° |
| 2026-05-04 19:00 | 25.05704 | 55.42823 | 13798 ft | 414 kts | 120° |
| 2026-05-04 19:01 | 25.04223 | 55.45577 | 14449 ft | 420 kts | 120° |
| 2026-05-04 19:01 | 25.02724 | 55.48363 | 15108 ft | 425 kts | 121° |
| 2026-05-04 19:01 | 25.01209 | 55.51178 | 15750 ft | 430 kts | 121° |
| 2026-05-04 19:01 | 24.99674 | 55.54029 | 16383 ft | 435 kts | 121° |
| 2026-05-04 19:02 | 24.98141 | 55.56875 | 16975 ft | 439 kts | 121° |
| 2026-05-04 19:02 | 24.96575 | 55.59783 | 17576 ft | 444 kts | 121° |
| 2026-05-04 19:02 | 24.94995 | 55.62715 | 18207 ft | 446 kts | 122° |
| 2026-05-04 19:02 | 24.93413 | 55.65676 | 18778 ft | 450 kts | 122° |
| 2026-05-04 19:03 | 24.91815 | 55.68656 | 19294 ft | 455 kts | 122° |
| 2026-05-04 19:03 | 24.90192 | 55.71665 | 19806 ft | 459 kts | 122° |
| 2026-05-04 19:03 | 24.88548 | 55.74705 | 20284 ft | 464 kts | 122° |
| 2026-05-04 19:03 | 24.86886 | 55.77774 | 20768 ft | 468 kts | 122° |
| 2026-05-04 19:04 | 24.85209 | 55.80869 | 21276 ft | 472 kts | 123° |
| 2026-05-04 19:04 | 24.83520 | 55.83984 | 21717 ft | 477 kts | 123° |
| 2026-05-04 19:04 | 24.81789 | 55.87111 | 22151 ft | 479 kts | 126° |
| 2026-05-04 19:04 | 24.79619 | 55.89864 | 22537 ft | 477 kts | 142° |
| 2026-05-04 19:05 | 24.76866 | 55.91876 | 22885 ft | 475 kts | 158° |
| 2026-05-04 19:05 | 24.73752 | 55.92974 | 23300 ft | 469 kts | 174° |
| 2026-05-04 19:05 | 24.70520 | 55.93096 | 23713 ft | 463 kts | 190° |
| 2026-05-04 19:05 | 24.67419 | 55.92262 | 24147 ft | 457 kts | 204° |
| 2026-05-04 19:06 | 24.64572 | 55.90746 | 24550 ft | 454 kts | 215° |
| 2026-05-04 19:06 | 24.61965 | 55.88795 | 24876 ft | 455 kts | 218° |
| 2026-05-04 19:06 | 24.59361 | 55.86784 | 25179 ft | 460 kts | 219° |
| 2026-05-04 19:06 | 24.56761 | 55.84727 | 25584 ft | 461 kts | 219° |
| 2026-05-04 19:07 | 24.54186 | 55.82688 | 25961 ft | 464 kts | 219° |
| 2026-05-04 19:07 | 24.51558 | 55.80614 | 26330 ft | 466 kts | 219° |
| 2026-05-04 19:07 | 24.48925 | 55.78532 | 26706 ft | 468 kts | 219° |
| 2026-05-04 19:07 | 24.46280 | 55.76454 | 27136 ft | 468 kts | 219° |
| 2026-05-04 19:08 | 24.43625 | 55.74374 | 27468 ft | 470 kts | 219° |
| 2026-05-04 19:08 | 24.40945 | 55.72277 | 27683 ft | 475 kts | 219° |
| 2026-05-04 19:08 | 24.38247 | 55.70168 | 28021 ft | 477 kts | 219° |
| 2026-05-04 19:08 | 24.35549 | 55.68060 | 28340 ft | 478 kts | 219° |
| 2026-05-04 19:09 | 24.32834 | 55.65939 | 28684 ft | 479 kts | 219° |
| 2026-05-04 19:09 | 24.30094 | 55.63835 | 28911 ft | 483 kts | 217° |
| 2026-05-04 19:09 | 24.27171 | 55.61975 | 29138 ft | 488 kts | 211° |
| 2026-05-04 19:09 | 24.24094 | 55.60368 | 29354 ft | 494 kts | 207° |
| 2026-05-04 19:10 | 24.20866 | 55.59023 | 29567 ft | 499 kts | 202° |
| 2026-05-04 19:10 | 24.17529 | 55.57930 | 29789 ft | 503 kts | 199° |
| 2026-05-04 19:10 | 24.10739 | 55.56079 | 29818 ft | 502 kts | 199° |
| 2026-05-04 19:11 | 24.04009 | 55.54063 | 29809 ft | 499 kts | 202° |
| 2026-05-04 19:11 | 24.00882 | 55.52487 | 29812 ft | 493 kts | 217° |
| 2026-05-04 19:11 | 23.98284 | 55.50084 | 29812 ft | 488 kts | 231° |
| 2026-05-04 19:12 | 23.96320 | 55.47094 | 29813 ft | 482 kts | 242° |
| 2026-05-04 19:12 | 23.93635 | 55.40448 | 29812 ft | 477 kts | 249° |
| 2026-05-04 19:13 | 23.91159 | 55.33727 | 29809 ft | 477 kts | 250° |
| 2026-05-04 19:13 | 23.88889 | 55.26924 | 29805 ft | 476 kts | 254° |
| 2026-05-04 19:14 | 23.87087 | 55.19965 | 29803 ft | 476 kts | 256° |
| 2026-05-04 19:14 | 23.85447 | 55.13013 | 29803 ft | 475 kts | 257° |
| 2026-05-04 19:15 | 23.83820 | 55.06015 | 29792 ft | 475 kts | 257° |
| 2026-05-04 19:15 | 23.82190 | 54.99031 | 29781 ft | 474 kts | 257° |
| 2026-05-04 19:16 | 23.80556 | 54.92052 | 29776 ft | 474 kts | 256° |
| 2026-05-04 19:16 | 23.78918 | 54.85073 | 29775 ft | 474 kts | 256° |
| 2026-05-04 19:17 | 23.77278 | 54.78100 | 29768 ft | 474 kts | 256° |
| 2026-05-04 19:17 | 23.75634 | 54.71125 | 29769 ft | 474 kts | 256° |
| 2026-05-04 19:18 | 23.73987 | 54.64151 | 29768 ft | 474 kts | 256° |
| 2026-05-04 19:18 | 23.72337 | 54.57180 | 29762 ft | 475 kts | 256° |
| 2026-05-04 19:19 | 23.70684 | 54.50212 | 29760 ft | 475 kts | 256° |
| 2026-05-04 19:19 | 23.69306 | 54.44416 | 29759 ft | 475 kts | 256° |
| 2026-05-04 19:20 | 23.67644 | 54.37441 | 29759 ft | 475 kts | 256° |
| 2026-05-04 19:20 | 23.65709 | 54.29332 | 29758 ft | 475 kts | 256° |
| 2026-05-04 19:21 | 23.64040 | 54.22360 | 29758 ft | 475 kts | 256° |
| 2026-05-04 19:21 | 23.62638 | 54.16511 | 29757 ft | 475 kts | 256° |
| 2026-05-04 19:22 | 23.60964 | 54.09542 | 29757 ft | 476 kts | 256° |
| 2026-05-04 19:22 | 23.59283 | 54.02557 | 29757 ft | 476 kts | 256° |
| 2026-05-04 19:23 | 23.57599 | 53.95576 | 29757 ft | 476 kts | 256° |
| 2026-05-04 19:23 | 23.55913 | 53.88602 | 29758 ft | 476 kts | 256° |
| 2026-05-04 19:24 | 23.54232 | 53.81662 | 29758 ft | 477 kts | 256° |
| 2026-05-04 19:24 | 23.52536 | 53.74675 | 29758 ft | 477 kts | 256° |
| 2026-05-04 19:25 | 23.50839 | 53.67699 | 29758 ft | 477 kts | 256° |
| 2026-05-04 19:25 | 23.49136 | 53.60713 | 29758 ft | 477 kts | 256° |
| 2026-05-04 19:26 | 23.47432 | 53.53734 | 29758 ft | 477 kts | 256° |
| 2026-05-04 19:26 | 23.45722 | 53.46747 | 29758 ft | 477 kts | 256° |
| 2026-05-04 19:27 | 23.44010 | 53.39770 | 29758 ft | 477 kts | 256° |
| 2026-05-04 19:27 | 23.42293 | 53.32784 | 29758 ft | 477 kts | 256° |
| 2026-05-04 19:28 | 23.40575 | 53.25810 | 29758 ft | 477 kts | 256° |
| 2026-05-04 19:28 | 23.38852 | 53.18828 | 29757 ft | 477 kts | 256° |
| 2026-05-04 19:29 | 23.37127 | 53.11852 | 29757 ft | 477 kts | 256° |
| 2026-05-04 19:29 | 23.35400 | 53.04883 | 29757 ft | 477 kts | 256° |
| 2026-05-04 19:30 | 23.33669 | 52.97913 | 29757 ft | 477 kts | 256° |
| 2026-05-04 19:30 | 23.31939 | 52.90956 | 29757 ft | 477 kts | 256° |
| 2026-05-04 19:31 | 23.30201 | 52.83987 | 29757 ft | 477 kts | 256° |
| 2026-05-04 19:31 | 23.28464 | 52.77033 | 29757 ft | 477 kts | 256° |
| 2026-05-04 19:32 | 23.26723 | 52.70077 | 29757 ft | 477 kts | 255° |
| 2026-05-04 19:32 | 23.24978 | 52.63121 | 29758 ft | 476 kts | 255° |
| 2026-05-04 19:33 | 23.23232 | 52.56176 | 29758 ft | 476 kts | 255° |
| 2026-05-04 19:33 | 23.21482 | 52.49227 | 29758 ft | 477 kts | 255° |
| 2026-05-04 19:34 | 23.19728 | 52.42277 | 29758 ft | 477 kts | 255° |
| 2026-05-04 19:34 | 23.17970 | 52.35320 | 29758 ft | 477 kts | 255° |
| 2026-05-04 19:35 | 23.16209 | 52.28371 | 29758 ft | 477 kts | 255° |
| 2026-05-04 19:35 | 23.14457 | 52.21466 | 29758 ft | 477 kts | 255° |
| 2026-05-04 19:36 | 23.12692 | 52.14525 | 29758 ft | 477 kts | 255° |
| 2026-05-04 19:36 | 23.10923 | 52.07583 | 29758 ft | 477 kts | 255° |
| 2026-05-04 19:37 | 23.09150 | 52.00638 | 29758 ft | 477 kts | 255° |
| 2026-05-04 19:37 | 23.07376 | 51.93703 | 29758 ft | 477 kts | 255° |
| 2026-05-04 19:38 | 23.05596 | 51.86757 | 29758 ft | 477 kts | 255° |
| 2026-05-04 19:38 | 23.03815 | 51.79823 | 29757 ft | 477 kts | 255° |
| 2026-05-04 19:39 | 23.02031 | 51.72888 | 29757 ft | 477 kts | 255° |
| 2026-05-04 19:39 | 23.00246 | 51.65961 | 29757 ft | 477 kts | 255° |
| 2026-05-04 19:40 | 22.98456 | 51.59026 | 29757 ft | 477 kts | 255° |
| 2026-05-04 19:40 | 22.96665 | 51.52099 | 29757 ft | 477 kts | 255° |
| 2026-05-04 19:41 | 22.94879 | 51.45164 | 29757 ft | 477 kts | 255° |
| 2026-05-04 19:41 | 22.93156 | 51.38223 | 29757 ft | 477 kts | 255° |
| 2026-05-04 19:42 | 22.91369 | 51.31293 | 29757 ft | 477 kts | 255° |
| 2026-05-04 19:42 | 22.89577 | 51.24375 | 29757 ft | 477 kts | 255° |
| 2026-05-04 19:43 | 22.87837 | 51.17433 | 29759 ft | 476 kts | 258° |
| 2026-05-04 19:43 | 22.87123 | 51.10342 | 29759 ft | 477 kts | 268° |
| 2026-05-04 19:44 | 22.87214 | 51.03160 | 29757 ft | 477 kts | 272° |
| 2026-05-04 19:44 | 22.87674 | 50.95981 | 29757 ft | 477 kts | 274° |
| 2026-05-04 19:45 | 22.88167 | 50.88810 | 29757 ft | 477 kts | 273° |
| 2026-05-04 19:45 | 22.88641 | 50.81628 | 29757 ft | 477 kts | 273° |
| 2026-05-04 19:46 | 22.89108 | 50.74456 | 29757 ft | 477 kts | 273° |
| 2026-05-04 19:46 | 22.89602 | 50.67277 | 29757 ft | 477 kts | 273° |
| 2026-05-04 19:47 | 22.90077 | 50.60096 | 29757 ft | 477 kts | 273° |
| 2026-05-04 19:47 | 22.90541 | 50.52922 | 29757 ft | 477 kts | 273° |
| 2026-05-04 19:48 | 22.91000 | 50.45739 | 29757 ft | 477 kts | 273° |
| 2026-05-04 19:48 | 22.91455 | 50.38565 | 29757 ft | 477 kts | 273° |
| 2026-05-04 19:49 | 22.91906 | 50.31379 | 29758 ft | 477 kts | 273° |
| 2026-05-04 19:49 | 22.92354 | 50.24204 | 29758 ft | 477 kts | 273° |
| 2026-05-04 19:50 | 22.92799 | 50.17019 | 29758 ft | 477 kts | 273° |
| 2026-05-04 19:50 | 22.93241 | 50.09837 | 29758 ft | 477 kts | 273° |
| 2026-05-04 19:51 | 22.93679 | 50.02659 | 29758 ft | 477 kts | 273° |
| 2026-05-04 19:51 | 22.94114 | 49.95482 | 29758 ft | 477 kts | 273° |
| 2026-05-04 19:52 | 22.94545 | 49.88301 | 29758 ft | 477 kts | 273° |
| 2026-05-04 19:52 | 22.94974 | 49.81118 | 29758 ft | 477 kts | 273° |
| 2026-05-04 19:53 | 22.95400 | 49.73928 | 29758 ft | 477 kts | 273° |
| 2026-05-04 19:53 | 22.95822 | 49.66750 | 29758 ft | 477 kts | 273° |
| 2026-05-04 19:54 | 22.96241 | 49.59562 | 29758 ft | 477 kts | 273° |
| 2026-05-04 19:54 | 22.96656 | 49.52378 | 29758 ft | 477 kts | 272° |
| 2026-05-04 19:55 | 22.97068 | 49.45200 | 29758 ft | 477 kts | 272° |
| 2026-05-04 19:55 | 22.97478 | 49.38018 | 29758 ft | 477 kts | 272° |
| 2026-05-04 19:56 | 22.97896 | 49.30878 | 29758 ft | 477 kts | 273° |
| 2026-05-04 19:56 | 22.98303 | 49.23697 | 29758 ft | 477 kts | 272° |
| 2026-05-04 19:57 | 22.98696 | 49.16505 | 29758 ft | 477 kts | 272° |
| 2026-05-04 19:57 | 22.99085 | 49.09322 | 29757 ft | 477 kts | 272° |
| 2026-05-04 19:58 | 22.99474 | 49.02139 | 29757 ft | 477 kts | 272° |
| 2026-05-04 19:58 | 22.99919 | 48.94955 | 29757 ft | 477 kts | 274° |
| 2026-05-04 19:59 | 23.00529 | 48.87780 | 29757 ft | 477 kts | 274° |
| 2026-05-04 19:59 | 23.01121 | 48.80606 | 29757 ft | 477 kts | 274° |
| 2026-05-04 20:00 | 23.01692 | 48.73431 | 29757 ft | 477 kts | 274° |
| 2026-05-04 20:00 | 23.02254 | 48.66261 | 29757 ft | 477 kts | 274° |
| 2026-05-04 20:01 | 23.02830 | 48.59080 | 29757 ft | 477 kts | 274° |
| 2026-05-04 20:01 | 23.03411 | 48.51908 | 29757 ft | 477 kts | 274° |
| 2026-05-04 20:02 | 23.03977 | 48.44727 | 29757 ft | 477 kts | 274° |
| 2026-05-04 20:02 | 23.04535 | 48.37544 | 29757 ft | 477 kts | 274° |
| 2026-05-04 20:03 | 23.05088 | 48.30369 | 29757 ft | 477 kts | 274° |
| 2026-05-04 20:03 | 23.05638 | 48.23191 | 29757 ft | 477 kts | 274° |
| 2026-05-04 20:04 | 23.06185 | 48.16013 | 29757 ft | 477 kts | 274° |
| 2026-05-04 20:04 | 23.06742 | 48.08830 | 29757 ft | 477 kts | 274° |
| 2026-05-04 20:05 | 23.07290 | 48.01655 | 29758 ft | 477 kts | 274° |
| 2026-05-04 20:05 | 23.07820 | 47.94475 | 29758 ft | 477 kts | 274° |
| 2026-05-04 20:06 | 23.08257 | 47.88508 | 29758 ft | 477 kts | 274° |
| 2026-05-04 20:06 | 23.09057 | 47.81365 | 29756 ft | 478 kts | 285° |
| 2026-05-04 20:06 | 23.10434 | 47.78083 | 29758 ft | 482 kts | 300° |
| 2026-05-04 20:07 | 23.13408 | 47.74484 | 29762 ft | 487 kts | 316° |
| 2026-05-04 20:07 | 23.18000 | 47.70793 | 29758 ft | 494 kts | 323° |
| 2026-05-04 20:08 | 23.23894 | 47.66913 | 29757 ft | 496 kts | 326° |
| 2026-05-04 20:08 | 23.29201 | 47.63408 | 29758 ft | 496 kts | 324° |
| 2026-05-04 20:09 | 23.35053 | 47.59425 | 29758 ft | 496 kts | 324° |
| 2026-05-04 20:09 | 23.40895 | 47.55448 | 29757 ft | 493 kts | 324° |
| 2026-05-04 20:09 | 23.43468 | 47.53501 | 29744 ft | 475 kts | 318° |
| 2026-05-04 20:10 | 23.45912 | 47.51168 | 29463 ft | 461 kts | 312° |
| 2026-05-04 20:10 | 23.48113 | 47.48648 | 28769 ft | 459 kts | 309° |
| 2026-05-04 20:10 | 23.50193 | 47.46026 | 28193 ft | 455 kts | 306° |
| 2026-05-04 20:10 | 23.52142 | 47.43332 | 27629 ft | 451 kts | 304° |
| 2026-05-04 20:11 | 23.54025 | 47.40566 | 27060 ft | 447 kts | 303° |
| 2026-05-04 20:11 | 23.55819 | 47.37869 | 26511 ft | 444 kts | 303° |
| 2026-05-04 20:11 | 23.57628 | 47.35160 | 25960 ft | 440 kts | 304° |
| 2026-05-04 20:11 | 23.59432 | 47.32472 | 25409 ft | 437 kts | 304° |
| 2026-05-04 20:12 | 23.61225 | 47.29810 | 24860 ft | 434 kts | 304° |
| 2026-05-04 20:12 | 23.63003 | 47.27172 | 24314 ft | 431 kts | 304° |
| 2026-05-04 20:12 | 23.64778 | 47.24540 | 23761 ft | 429 kts | 304° |
| 2026-05-04 20:12 | 23.66536 | 47.21932 | 23208 ft | 426 kts | 304° |
| 2026-05-04 20:13 | 23.68295 | 47.19342 | 22658 ft | 424 kts | 304° |
| 2026-05-04 20:13 | 23.70041 | 47.16786 | 22359 ft | 414 kts | 303° |
| 2026-05-04 20:13 | 23.71824 | 47.14347 | 22016 ft | 409 kts | 307° |
| 2026-05-04 20:13 | 23.73839 | 47.12141 | 21600 ft | 412 kts | 314° |
| 2026-05-04 20:14 | 23.76046 | 47.10134 | 21218 ft | 414 kts | 316° |
| 2026-05-04 20:14 | 23.78305 | 47.08176 | 20878 ft | 414 kts | 317° |
| 2026-05-04 20:14 | 23.80591 | 47.06266 | 20560 ft | 414 kts | 319° |
| 2026-05-04 20:14 | 23.82890 | 47.04389 | 20269 ft | 412 kts | 319° |
| 2026-05-04 20:15 | 23.85196 | 47.02534 | 19986 ft | 410 kts | 320° |
| 2026-05-04 20:15 | 23.87487 | 47.00692 | 19704 ft | 409 kts | 320° |
| 2026-05-04 20:15 | 23.89775 | 46.98850 | 19425 ft | 407 kts | 320° |
| 2026-05-04 20:15 | 23.92046 | 46.97019 | 19151 ft | 405 kts | 320° |
| 2026-05-04 20:16 | 23.94311 | 46.95192 | 18876 ft | 404 kts | 320° |
| 2026-05-04 20:16 | 23.96565 | 46.93372 | 18606 ft | 402 kts | 320° |
| 2026-05-04 20:16 | 23.98806 | 46.91561 | 18341 ft | 401 kts | 320° |
| 2026-05-04 20:16 | 24.01043 | 46.89753 | 18079 ft | 399 kts | 320° |
| 2026-05-04 20:17 | 24.03274 | 46.87949 | 17820 ft | 398 kts | 320° |
| 2026-05-04 20:17 | 24.05497 | 46.86150 | 17567 ft | 396 kts | 320° |
| 2026-05-04 20:17 | 24.07766 | 46.84442 | 17285 ft | 397 kts | 324° |
| 2026-05-04 20:17 | 24.10204 | 46.83010 | 17032 ft | 399 kts | 332° |
| 2026-05-04 20:18 | 24.12748 | 46.81815 | 16809 ft | 398 kts | 334° |
| 2026-05-04 20:18 | 24.15311 | 46.80680 | 16585 ft | 397 kts | 335° |
| 2026-05-04 20:18 | 24.17882 | 46.79594 | 16385 ft | 397 kts | 335° |
| 2026-05-04 20:18 | 24.20471 | 46.78535 | 16184 ft | 396 kts | 336° |
| 2026-05-04 20:19 | 24.23052 | 46.77494 | 15984 ft | 395 kts | 336° |
| 2026-05-04 20:19 | 24.25590 | 46.76473 | 15786 ft | 394 kts | 337° |
| 2026-05-04 20:19 | 24.28202 | 46.75579 | 15585 ft | 394 kts | 341° |
| 2026-05-04 20:19 | 24.30850 | 46.74797 | 15381 ft | 393 kts | 341° |
| 2026-05-04 20:20 | 24.33479 | 46.74010 | 15132 ft | 393 kts | 341° |
| 2026-05-04 20:20 | 24.36122 | 46.73220 | 14881 ft | 396 kts | 341° |
| 2026-05-04 20:20 | 24.38789 | 46.72423 | 14629 ft | 397 kts | 341° |
| 2026-05-04 20:20 | 24.41157 | 46.71716 | 14407 ft | 396 kts | 341° |
| 2026-05-04 20:21 | 24.43691 | 46.70959 | 14168 ft | 395 kts | 341° |
| 2026-05-04 20:21 | 24.46341 | 46.70166 | 13917 ft | 394 kts | 341° |
| 2026-05-04 20:21 | 24.51628 | 46.68585 | 13417 ft | 393 kts | 341° |
| 2026-05-04 20:22 | 24.54226 | 46.67671 | 13167 ft | 391 kts | 337° |
| 2026-05-04 20:22 | 24.56770 | 46.66631 | 12915 ft | 390 kts | 336° |
| 2026-05-04 20:22 | 24.59297 | 46.65548 | 12664 ft | 389 kts | 335° |
| 2026-05-04 20:22 | 24.61734 | 46.64469 | 12420 ft | 388 kts | 335° |
| 2026-05-04 20:23 | 24.64223 | 46.63342 | 12170 ft | 387 kts | 334° |
| 2026-05-04 20:23 | 24.66711 | 46.62212 | 11919 ft | 386 kts | 334° |
| 2026-05-04 20:23 | 24.69192 | 46.61086 | 11669 ft | 386 kts | 334° |
| 2026-05-04 20:23 | 24.71638 | 46.59976 | 11422 ft | 385 kts | 334° |
| 2026-05-04 20:24 | 24.74110 | 46.58855 | 11172 ft | 384 kts | 334° |
| 2026-05-04 20:24 | 24.76580 | 46.57735 | 10922 ft | 384 kts | 335° |
| 2026-05-04 20:24 | 24.79039 | 46.56620 | 10612 ft | 378 kts | 334° |
| 2026-05-04 20:24 | 24.81411 | 46.55543 | 10157 ft | 361 kts | 334° |
| 2026-05-04 20:25 | 24.83686 | 46.54510 | 9734 ft | 345 kts | 334° |
| 2026-05-04 20:25 | 24.85843 | 46.53530 | 9432 ft | 327 kts | 334° |
| 2026-05-04 20:25 | 24.87897 | 46.52597 | 9092 ft | 312 kts | 334° |
| 2026-05-04 20:25 | 24.89874 | 46.51699 | 8698 ft | 303 kts | 334° |
| 2026-05-04 20:26 | 24.91797 | 46.50829 | 8447 ft | 296 kts | 334° |
| 2026-05-04 20:26 | 24.93691 | 46.49973 | 8195 ft | 293 kts | 334° |
| 2026-05-04 20:26 | 24.95575 | 46.49119 | 7945 ft | 294 kts | 334° |
| 2026-05-04 20:26 | 24.97475 | 46.48255 | 7699 ft | 298 kts | 334° |
| 2026-05-04 20:27 | 24.99395 | 46.47381 | 7451 ft | 297 kts | 334° |
| 2026-05-04 20:27 | 25.01302 | 46.46513 | 7159 ft | 295 kts | 334° |
| 2026-05-04 20:27 | 25.03194 | 46.45650 | 6859 ft | 294 kts | 334° |
| 2026-05-04 20:27 | 25.05076 | 46.44792 | 6571 ft | 292 kts | 334° |
| 2026-05-04 20:28 | 25.06939 | 46.43942 | 6304 ft | 287 kts | 334° |
| 2026-05-04 20:28 | 25.08772 | 46.43105 | 5989 ft | 284 kts | 334° |
| 2026-05-04 20:28 | 25.10594 | 46.42274 | 5677 ft | 282 kts | 334° |
| 2026-05-04 20:28 | 25.12450 | 46.41633 | 5376 ft | 280 kts | 349° |
| 2026-05-04 20:29 | 25.14366 | 46.41855 | 5137 ft | 277 kts | 17° |
| 2026-05-04 20:29 | 25.15949 | 46.42977 | 4976 ft | 267 kts | 44° |
| 2026-05-04 20:29 | 25.16965 | 46.44610 | 4913 ft | 252 kts | 59° |
| 2026-05-04 20:29 | 25.17783 | 46.46280 | 4752 ft | 244 kts | 62° |
| 2026-05-04 20:30 | 25.18546 | 46.47924 | 4528 ft | 237 kts | 70° |
| 2026-05-04 20:30 | 25.18744 | 46.49671 | 4232 ft | 228 kts | 98° |
| 2026-05-04 20:30 | 25.18222 | 46.51279 | 4081 ft | 218 kts | 114° |
| 2026-05-04 20:30 | 25.17594 | 46.52789 | 4021 ft | 216 kts | 113° |
| 2026-05-04 20:31 | 25.17011 | 46.54290 | 4051 ft | 209 kts | 113° |
| 2026-05-04 20:31 | 25.16446 | 46.55768 | 4013 ft | 211 kts | 113° |
| 2026-05-04 20:31 | 25.15874 | 46.57267 | 4003 ft | 213 kts | 113° |
| 2026-05-04 20:31 | 25.15164 | 46.58689 | 3994 ft | 212 kts | 130° |
| 2026-05-04 20:32 | 25.14036 | 46.59709 | 3994 ft | 207 kts | 143° |
| 2026-05-04 20:32 | 25.12824 | 46.60526 | 3992 ft | 202 kts | 148° |
| 2026-05-04 20:32 | 25.11609 | 46.61269 | 3996 ft | 197 kts | 149° |
| 2026-05-04 20:32 | 25.10419 | 46.62010 | 3996 ft | 196 kts | 149° |
| 2026-05-04 20:33 | 25.09235 | 46.62761 | 4005 ft | 198 kts | 149° |
| 2026-05-04 20:33 | 25.08034 | 46.63529 | 4000 ft | 200 kts | 149° |
| 2026-05-04 20:33 | 25.06846 | 46.64290 | 4033 ft | 196 kts | 149° |
| 2026-05-04 20:33 | 25.05664 | 46.65048 | 3863 ft | 197 kts | 149° |
| 2026-05-04 20:34 | 25.04488 | 46.65802 | 3598 ft | 193 kts | 149° |
| 2026-05-04 20:34 | 25.03339 | 46.66539 | 3340 ft | 188 kts | 149° |
| 2026-05-04 20:34 | 25.02249 | 46.67238 | 3099 ft | 175 kts | 149° |
| 2026-05-04 20:34 | 25.01234 | 46.67889 | 2861 ft | 164 kts | 150° |
| 2026-05-04 20:35 | 25.00268 | 46.68508 | 2670 ft | 158 kts | 149° |
| 2026-05-04 20:35 | 24.99331 | 46.69109 | 2501 ft | 155 kts | 149° |
| 2026-05-04 20:35 | 24.98393 | 46.69716 | 2231 ft | 158 kts | 149° |
| 2026-05-04 20:35 | 24.97614 | 46.70208 | 2090 ft | 157 kts | 149° |
| 2026-05-04 20:36 | 24.96751 | 46.70764 | 2063 ft | 127 kts | 149° |
| 2026-05-04 20:36 | 24.96117 | 46.71169 | 2063 ft | 84 kts | 150° |
| 2026-05-04 20:36 | 24.95761 | 46.71372 | 2063 ft | 38 kts | 166° |
| 2026-05-04 20:36 | 24.95567 | 46.71378 | 2063 ft | 22 kts | 201° |
| 2026-05-04 20:37 | 24.95471 | 46.71257 | 2063 ft | 21 kts | 238° |
| 2026-05-04 20:37 | 24.95377 | 46.71165 | 2063 ft | 13 kts | 176° |
| 2026-05-04 20:37 | 24.95299 | 46.71208 | 2063 ft | 13 kts | 149° |
| 2026-05-04 20:37 | 24.95226 | 46.71256 | 2063 ft | 12 kts | 149° |
| 2026-05-04 20:38 | 24.95155 | 46.71302 | 2063 ft | 12 kts | 149° |
| 2026-05-04 20:38 | 24.95087 | 46.71346 | 2063 ft | 11 kts | 149° |
| 2026-05-04 20:38 | 24.95021 | 46.71388 | 2063 ft | 11 kts | 152° |
| 2026-05-04 20:38 | 24.94958 | 46.71429 | 2063 ft | 10 kts | 151° |
| 2026-05-04 20:39 | 24.94897 | 46.71466 | 2063 ft | 10 kts | 154° |
| 2026-05-04 20:39 | 24.94836 | 46.71502 | 2063 ft | 10 kts | 148° |
| 2026-05-04 20:39 | 24.94772 | 46.71504 | 2063 ft | 11 kts | 223° |
| 2026-05-04 20:39 | 24.94728 | 46.71439 | 2063 ft | 11 kts | 238° |
| 2026-05-04 20:40 | 24.94690 | 46.71369 | 2063 ft | 10 kts | 239° |
| 2026-05-04 20:40 | 24.94653 | 46.71303 | 2063 ft | 10 kts | 238° |
| 2026-05-04 20:40 | 24.94608 | 46.71251 | 2063 ft | 9 kts | 200° |
| 2026-05-04 20:40 | 24.94547 | 46.71266 | 2063 ft | 9 kts | 150° |
| 2026-05-04 20:41 | 24.94490 | 46.71275 | 2063 ft | 9 kts | 220° |
| 2026-05-04 20:41 | 24.94460 | 46.71222 | 2063 ft | 4 kts | 239° |
| 2026-05-04 20:41 | 24.94452 | 46.71207 | 2063 ft | 2 kts | 239° |
| 2026-05-04 20:41 | 24.94449 | 46.71203 | 2063 ft | 0 kts | 239° |